Time;durP1;ratioP1;P1;durP2;ratioP2;P2;SDS_P1;SDS_P2;PMS_P1;PMS_P2;Temp;Humidity;BMP_temperature;BMP_pressure;BME280_temperature;BME280_humidity;BME280_pressure;Samples;Min_cycle;Max_cycle;Signal;HPM_P1;HPM_P2
2023/12/29 00:01:13;;;;;;;34.42;21.50;;;13.10;83.10;;;;;;5114012;28;20441;-83
2023/12/29 00:03:39;;;;;;;28.52;20.83;;;13.10;83.00;;;;;;5113784;28;20027;-81
2023/12/29 00:06:06;;;;;;;30.67;21.30;;;13.10;82.90;;;;;;5113613;28;20058;-78
2023/12/29 00:08:32;;;;;;;29.00;20.23;;;13.10;82.90;;;;;;5113230;28;20032;-79
2023/12/29 00:10:58;;;;;;;29.38;21.38;;;13.20;82.80;;;;;;5113747;28;20039;-79
2023/12/29 00:13:25;;;;;;;28.75;21.55;;;13.20;82.70;;;;;;5114268;28;20040;-78
2023/12/29 00:15:55;;;;;;;31.83;20.92;;;13.20;82.70;;;;;;5112526;28;20111;-77
2023/12/29 00:18:20;;;;;;;28.20;20.98;;;13.20;82.60;;;;;;5113441;28;20035;-80
2023/12/29 00:20:47;;;;;;;29.27;21.55;;;13.20;82.50;;;;;;5113148;28;20027;-78
2023/12/29 00:23:12;;;;;;;28.33;20.40;;;13.30;82.40;;;;;;5113334;28;20028;-80
2023/12/29 00:25:38;;;;;;;28.10;20.38;;;13.30;82.40;;;;;;5114258;28;20031;-79
2023/12/29 00:28:05;;;;;;;27.60;19.88;;;13.30;82.20;;;;;;5117567;28;20487;-82
2023/12/29 00:30:31;;;;;;;28.95;20.08;;;13.30;82.20;;;;;;5118284;28;20085;-77
2023/12/29 00:32:57;;;;;;;27.33;19.80;;;13.40;82.10;;;;;;5117138;28;20036;-79
2023/12/29 00:35:23;;;;;;;27.48;19.90;;;13.30;82.00;;;;;;5117298;28;20031;-78
2023/12/29 00:37:50;;;;;;;25.88;19.63;;;13.30;81.90;;;;;;5117098;28;20386;-78
2023/12/29 00:40:16;;;;;;;30.90;19.02;;;13.30;81.90;;;;;;5116731;28;20562;-78
2023/12/29 00:42:42;;;;;;;27.33;19.55;;;13.30;81.80;;;;;;5116429;28;20103;-78
2023/12/29 00:45:08;;;;;;;24.30;19.13;;;13.40;81.80;;;;;;5116220;28;20027;-79
2023/12/29 00:47:34;;;;;;;26.90;19.50;;;13.40;81.80;;;;;;5116279;28;20047;-77
2023/12/29 00:50:01;;;;;;;26.88;19.73;;;13.30;81.60;;;;;;5116533;28;20036;-78
2023/12/29 00:52:27;;;;;;;23.88;19.42;;;13.30;81.60;;;;;;5116236;28;20117;-78
2023/12/29 00:54:53;;;;;;;26.08;20.00;;;13.30;81.70;;;;;;5116842;28;20043;-79
2023/12/29 00:57:19;;;;;;;26.20;19.73;;;13.30;81.40;;;;;;5116408;28;20019;-77
2023/12/29 00:59:47;;;;;;;27.50;19.23;;;13.30;81.40;;;;;;5114858;28;20490;-78
2023/12/29 01:02:13;;;;;;;27.13;19.50;;;13.30;81.50;;;;;;5115541;28;20360;-80
2023/12/29 01:04:39;;;;;;;23.55;18.60;;;13.30;81.40;;;;;;5116690;28;20042;-78
2023/12/29 01:07:05;;;;;;;28.25;19.95;;;13.30;81.50;;;;;;5116461;28;20509;-79
2023/12/29 01:09:30;;;;;;;27.58;20.10;;;13.30;81.60;;;;;;5116128;28;20142;-77
2023/12/29 01:11:56;;;;;;;25.70;19.95;;;13.30;81.70;;;;;;5115993;28;20321;-79
2023/12/29 01:14:22;;;;;;;25.50;19.73;;;13.30;81.60;;;;;;5115737;28;20035;-78
2023/12/29 01:16:47;;;;;;;24.67;19.65;;;13.30;81.60;;;;;;5116092;28;20032;-78
2023/12/29 01:19:13;;;;;;;27.83;20.35;;;13.30;81.60;;;;;;5115803;28;20084;-77
2023/12/29 01:21:39;;;;;;;24.92;19.23;;;13.30;81.80;;;;;;5115660;28;20027;-78
2023/12/29 01:24:06;;;;;;;26.42;19.95;;;13.30;81.80;;;;;;5115835;28;20448;-77
2023/12/29 01:26:39;;;;;;;26.88;20.48;;;13.30;81.80;;;;;;5115997;28;20031;-79
2023/12/29 01:29:06;;;;;;;30.30;19.83;;;13.20;82.00;;;;;;5115833;28;20555;-78
2023/12/29 01:31:31;;;;;;;27.08;19.45;;;13.20;81.90;;;;;;5115891;28;20097;-78
2023/12/29 01:33:57;;;;;;;28.02;20.90;;;13.20;81.80;;;;;;5115536;28;20040;-79
2023/12/29 01:36:23;;;;;;;29.77;20.98;;;13.20;81.90;;;;;;5114214;28;20042;-77
2023/12/29 01:38:49;;;;;;;26.40;19.80;;;13.20;82.20;;;;;;5114989;28;20548;-78
2023/12/29 01:41:15;;;;;;;24.10;19.48;;;13.20;81.90;;;;;;5115591;28;20067;-78
2023/12/29 01:44:20;;;;;;;27.92;19.50;;;13.20;82.00;;;;;;5115135;28;20507;-78
2023/12/29 01:46:46;;;;;;;;;;;13.20;82.40;;;;;;5116114;28;20043;-79
2023/12/29 01:49:16;;;;;;;25.35;19.17;;;13.20;82.20;;;;;;5116354;28;19919;-78
2023/12/29 01:51:43;;;;;;;27.38;20.85;;;13.30;82.20;;;;;;5120146;28;20024;-78
2023/12/29 01:54:10;;;;;;;28.40;20.17;;;13.30;82.30;;;;;;5116874;28;20031;-78
2023/12/29 01:56:37;;;;;;;28.13;19.25;;;13.30;82.00;;;;;;5116012;28;20103;-78
2023/12/29 01:59:03;;;;;;;26.80;20.08;;;13.20;82.00;;;;;;5115657;28;20031;-78
2023/12/29 02:01:30;;;;;;;25.88;20.15;;;13.20;82.00;;;;;;5116047;28;20096;-78
2023/12/29 02:03:56;;;;;;;27.63;20.63;;;13.20;82.20;;;;;;5115015;28;20035;-76
2023/12/29 02:06:23;;;;;;;26.83;19.65;;;13.20;82.30;;;;;;5114713;28;20035;-77
2023/12/29 02:08:50;;;;;;;26.08;20.50;;;13.20;82.10;;;;;;5115074;28;20054;-80
2023/12/29 02:11:17;;;;;;;25.77;20.13;;;13.20;82.30;;;;;;5114971;28;20112;-79
2023/12/29 02:13:43;;;;;;;26.13;19.75;;;13.20;82.30;;;;;;5114792;28;20031;-78
2023/12/29 02:16:27;;;;;;;26.35;20.52;;;13.20;82.10;;;;;;5114957;28;20065;-77
2023/12/29 02:18:55;;;;;;;25.48;19.60;;;13.20;82.40;;;;;;5115514;28;20426;-76
2023/12/29 02:21:25;;;;;;;26.83;18.90;;;13.20;82.30;;;;;;5115166;28;20088;-77
2023/12/29 02:23:51;;;;;;;26.83;20.08;;;13.20;82.50;;;;;;5114916;28;20483;-78
2023/12/29 02:26:20;;;;;;;28.27;20.77;;;13.20;82.50;;;;;;5114358;28;20039;-77
2023/12/29 02:28:54;;;;;;;29.63;20.33;;;13.20;82.50;;;;;;5113073;28;20082;-78
2023/12/29 02:31:23;;;;;;;27.17;20.30;;;13.20;82.50;;;;;;5114249;28;20031;-78
2023/12/29 02:33:51;;;;;;;28.00;19.52;;;13.20;82.50;;;;;;5114281;28;20453;-78
2023/12/29 02:36:17;;;;;;;24.90;19.60;;;13.20;82.50;;;;;;5114994;28;20057;-79
2023/12/29 02:38:44;;;;;;;24.85;19.30;;;13.10;82.30;;;;;;5114635;28;20028;-77
2023/12/29 02:41:11;;;;;;;27.70;19.67;;;13.20;82.50;;;;;;5113247;28;20032;-78
2023/12/29 02:43:36;;;;;;;26.48;20.02;;;13.20;82.20;;;;;;5116361;28;20546;-77
2023/12/29 02:46:02;;;;;;;28.65;19.73;;;13.10;82.20;;;;;;5116845;28;20047;-78
2023/12/29 02:48:28;;;;;;;26.58;20.40;;;13.10;82.30;;;;;;5114384;28;20055;-78
2023/12/29 02:50:53;;;;;;;27.08;19.42;;;13.10;82.30;;;;;;5113272;28;20047;-79
2023/12/29 02:53:19;;;;;;;23.80;18.65;;;13.10;82.30;;;;;;5114649;28;20554;-77
2023/12/29 02:55:45;;;;;;;26.73;19.73;;;13.10;82.40;;;;;;5114271;28;20080;-77
2023/12/29 02:58:11;;;;;;;26.38;19.38;;;13.10;82.50;;;;;;5114135;28;20368;-78
2023/12/29 03:00:36;;;;;;;24.25;18.60;;;13.10;82.40;;;;;;5114178;28;20031;-78
2023/12/29 03:03:02;;;;;;;28.15;18.35;;;13.10;82.40;;;;;;5113843;28;20086;-77
2023/12/29 03:05:28;;;;;;;24.55;17.52;;;13.10;82.40;;;;;;5113560;28;20032;-77
2023/12/29 03:07:53;;;;;;;26.30;17.73;;;13.10;82.30;;;;;;5118183;28;20394;-78
2023/12/29 03:10:19;;;;;;;21.83;17.20;;;13.10;82.00;;;;;;5117014;28;20044;-77
2023/12/29 03:12:45;;;;;;;22.35;16.60;;;13.00;82.00;;;;;;5114127;28;20028;-77
2023/12/29 03:15:10;;;;;;;23.25;17.05;;;13.10;82.00;;;;;;5113970;28;20103;-78
2023/12/29 03:17:36;;;;;;;19.73;15.60;;;13.10;81.70;;;;;;5113575;28;20031;-77
2023/12/29 03:20:06;;;;;;;22.35;16.95;;;13.10;81.60;;;;;;5112430;28;20050;-78
2023/12/29 03:22:32;;;;;;;22.38;16.20;;;13.10;81.60;;;;;;5113583;28;20103;-77
2023/12/29 03:24:57;;;;;;;23.92;15.98;;;13.10;81.50;;;;;;5113525;28;20111;-78
2023/12/29 03:27:23;;;;;;;22.23;16.23;;;13.10;81.60;;;;;;5113868;28;20035;-78
2023/12/29 03:29:49;;;;;;;22.98;16.92;;;13.10;81.40;;;;;;5115496;28;20118;-76
2023/12/29 03:32:15;;;;;;;23.08;17.20;;;13.10;81.40;;;;;;5116400;28;20032;-78
2023/12/29 03:34:41;;;;;;;22.20;16.33;;;13.10;81.90;;;;;;5113700;28;20032;-78
2023/12/29 03:37:06;;;;;;;23.60;16.95;;;13.10;81.60;;;;;;5113944;28;20039;-78
2023/12/29 03:39:35;;;;;;;21.85;16.27;;;13.10;81.70;;;;;;5114090;28;20114;-78
2023/12/29 03:42:01;;;;;;;22.58;17.00;;;13.10;81.60;;;;;;5114308;28;20046;-77
2023/12/29 03:44:27;;;;;;;24.48;15.65;;;13.00;81.40;;;;;;5113917;28;20521;-78
2023/12/29 03:46:52;;;;;;;20.95;16.45;;;13.00;81.40;;;;;;5113910;28;20035;-77
2023/12/29 03:49:19;;;;;;;21.70;16.20;;;13.10;81.30;;;;;;5113553;28;20093;-79
2023/12/29 03:51:46;;;;;;;22.83;15.57;;;13.10;81.20;;;;;;5113351;28;20036;-78
2023/12/29 03:54:12;;;;;;;22.23;16.98;;;13.00;81.10;;;;;;5113329;28;20031;-78
2023/12/29 03:56:37;;;;;;;20.60;16.38;;;13.00;81.10;;;;;;5113578;28;20031;-78
2023/12/29 03:59:03;;;;;;;25.40;17.10;;;13.00;81.20;;;;;;5113439;28;20050;-77
2023/12/29 04:01:29;;;;;;;20.38;15.55;;;13.10;81.30;;;;;;5111951;28;20123;-78
2023/12/29 04:03:55;;;;;;;22.75;16.92;;;13.10;81.30;;;;;;5113318;28;20119;-78
2023/12/29 04:06:20;;;;;;;28.70;17.98;;;13.10;81.40;;;;;;5113046;28;20765;-77
2023/12/29 04:08:46;;;;;;;23.70;17.83;;;13.10;81.40;;;;;;5113184;28;20518;-78
2023/12/29 04:11:12;;;;;;;24.70;17.77;;;13.10;81.60;;;;;;5113104;28;20039;-76
2023/12/29 04:13:38;;;;;;;24.50;17.95;;;13.10;81.50;;;;;;5113388;28;20395;-77
2023/12/29 04:16:04;;;;;;;24.55;17.42;;;13.10;81.70;;;;;;5112309;28;20092;-78
2023/12/29 04:18:29;;;;;;;23.02;17.00;;;13.00;81.60;;;;;;5113370;28;20020;-78
2023/12/29 04:20:55;;;;;;;25.02;18.02;;;13.10;81.90;;;;;;5113020;28;20093;-79
2023/12/29 04:23:21;;;;;;;26.02;18.02;;;13.10;81.90;;;;;;5113256;28;20038;-76
2023/12/29 04:25:46;;;;;;;24.55;17.48;;;13.10;81.90;;;;;;5113103;28;20048;-78
2023/12/29 04:28:13;;;;;;;23.73;17.65;;;13.10;82.00;;;;;;5113090;28;20031;-78
2023/12/29 04:30:38;;;;;;;24.77;17.55;;;13.00;81.80;;;;;;5113010;28;20059;-78
2023/12/29 04:33:04;;;;;;;21.35;17.02;;;13.00;82.00;;;;;;5112910;28;20028;-79
2023/12/29 04:35:30;;;;;;;25.60;18.48;;;13.00;81.80;;;;;;5112675;28;20032;-78
2023/12/29 04:37:56;;;;;;;21.65;17.17;;;13.00;82.00;;;;;;5112900;28;20479;-77
2023/12/29 04:40:21;;;;;;;22.42;17.55;;;13.10;82.00;;;;;;5112829;28;20123;-78
2023/12/29 04:42:47;;;;;;;23.95;17.10;;;13.10;82.00;;;;;;5112802;28;20035;-77
2023/12/29 04:45:13;;;;;;;23.42;16.73;;;13.10;81.90;;;;;;5112942;28;20031;-78
2023/12/29 04:47:39;;;;;;;25.25;18.75;;;13.00;81.90;;;;;;5112763;28;20465;-79
2023/12/29 04:50:08;;;;;;;29.27;18.92;;;13.00;82.00;;;;;;5112695;28;20506;-78
2023/12/29 04:52:34;;;;;;;21.33;17.52;;;13.00;82.20;;;;;;5111357;28;20038;-78
2023/12/29 04:54:59;;;;;;;28.48;18.58;;;13.00;82.50;;;;;;5112684;28;20032;-77
2023/12/29 04:57:25;;;;;;;24.77;18.42;;;13.00;82.60;;;;;;5112848;28;20576;-78
2023/12/29 04:59:51;;;;;;;23.23;17.27;;;13.00;82.40;;;;;;5112638;28;20028;-78
2023/12/29 05:02:16;;;;;;;24.02;18.95;;;13.00;82.40;;;;;;5112891;28;20032;-77
2023/12/29 05:04:42;;;;;;;22.85;18.70;;;13.00;82.40;;;;;;5112812;28;20472;-79
2023/12/29 05:07:09;;;;;;;24.50;19.25;;;12.90;82.30;;;;;;5112529;28;20108;-78
2023/12/29 05:09:35;;;;;;;24.75;19.65;;;12.90;82.40;;;;;;5113188;28;20035;-79
2023/12/29 05:12:01;;;;;;;24.25;19.02;;;12.90;82.70;;;;;;5112664;28;20084;-77
2023/12/29 05:14:27;;;;;;;27.23;20.13;;;12.90;82.70;;;;;;5121462;28;20031;-77
2023/12/29 05:16:52;;;;;;;24.33;19.33;;;12.90;82.90;;;;;;5116846;28;20028;-78
2023/12/29 05:19:18;;;;;;;27.10;20.88;;;12.90;82.90;;;;;;5114517;28;20042;-78
2023/12/29 05:21:43;;;;;;;23.85;19.60;;;12.80;83.00;;;;;;5115793;28;20028;-77
2023/12/29 05:24:10;;;;;;;26.20;20.77;;;12.90;83.40;;;;;;5114506;28;20476;-78
2023/12/29 05:26:35;;;;;;;24.98;19.52;;;12.80;83.20;;;;;;5115537;28;20512;-76
2023/12/29 05:29:02;;;;;;;27.85;20.13;;;12.80;83.20;;;;;;5115788;28;20114;-78
2023/12/29 05:31:27;;;;;;;27.70;20.48;;;12.80;83.40;;;;;;5115752;28;20128;-79
2023/12/29 05:33:55;;;;;;;28.92;19.63;;;12.80;83.40;;;;;;5115663;28;20481;-78
2023/12/29 05:36:21;;;;;;;25.73;19.70;;;12.80;83.60;;;;;;5115516;28;20509;-77
2023/12/29 05:38:46;;;;;;;26.20;19.08;;;12.80;83.60;;;;;;5115472;28;20027;-78
2023/12/29 05:41:15;;;;;;;28.33;19.33;;;12.80;83.70;;;;;;5118926;28;20035;-79
2023/12/29 05:43:41;;;;;;;25.08;19.88;;;12.80;83.70;;;;;;5116129;28;20036;-78
2023/12/29 05:46:13;;;;;;;26.80;19.10;;;12.80;83.60;;;;;;5115256;28;20042;-79
2023/12/29 05:48:39;;;;;;;26.30;19.45;;;12.80;83.80;;;;;;5115371;28;20031;-80
2023/12/29 05:51:09;;;;;;;24.15;17.77;;;12.80;83.90;;;;;;5115326;27;20038;-77
2023/12/29 05:53:35;;;;;;;26.52;18.45;;;12.80;83.90;;;;;;5115581;28;20039;-78
2023/12/29 05:56:01;;;;;;;22.92;17.05;;;12.70;83.70;;;;;;5115364;28;20484;-79
2023/12/29 05:58:26;;;;;;;25.25;16.98;;;12.80;83.80;;;;;;5115238;28;20089;-80
2023/12/29 06:00:52;;;;;;;22.33;17.45;;;12.80;83.80;;;;;;5115118;28;20041;-77
2023/12/29 06:03:18;;;;;;;25.42;18.10;;;12.80;83.80;;;;;;5115352;28;20055;-78
2023/12/29 06:05:44;;;;;;;21.75;16.50;;;12.80;83.70;;;;;;5115455;28;20099;-79
2023/12/29 06:08:09;;;;;;;24.13;17.13;;;12.80;83.60;;;;;;5115377;28;20035;-78
2023/12/29 06:10:36;;;;;;;20.60;16.15;;;12.80;83.70;;;;;;5115072;28;20410;-79
2023/12/29 06:13:03;;;;;;;24.67;16.83;;;12.80;83.70;;;;;;5115232;27;20390;-77
2023/12/29 06:15:28;;;;;;;22.35;16.58;;;12.90;83.80;;;;;;5115719;28;20059;-78
2023/12/29 06:17:54;;;;;;;22.77;16.88;;;12.90;83.70;;;;;;5114850;28;20514;-77
2023/12/29 06:20:20;;;;;;;22.35;15.60;;;12.90;83.60;;;;;;5115419;28;20074;-79
2023/12/29 06:22:46;;;;;;;20.52;15.60;;;12.80;83.60;;;;;;5115261;28;20039;-78
2023/12/29 06:25:12;;;;;;;22.42;15.18;;;12.90;83.60;;;;;;5114574;28;20039;-80
2023/12/29 06:27:40;;;;;;;23.90;16.17;;;12.80;83.60;;;;;;5114764;28;20031;-79
2023/12/29 06:30:07;;;;;;;21.70;15.23;;;12.80;83.70;;;;;;5114776;28;20050;-79
2023/12/29 06:32:33;;;;;;;21.52;15.10;;;12.90;83.80;;;;;;5114529;28;20088;-79
2023/12/29 06:34:58;;;;;;;21.13;15.52;;;12.90;83.60;;;;;;5114715;28;20093;-78
2023/12/29 06:37:24;;;;;;;23.00;16.08;;;12.90;83.80;;;;;;5114224;28;20036;-77
2023/12/29 06:39:50;;;;;;;20.38;15.93;;;12.90;83.70;;;;;;5114545;28;20028;-78
2023/12/29 06:42:16;;;;;;;22.58;15.32;;;12.90;83.60;;;;;;5115204;28;20313;-78
2023/12/29 06:44:41;;;;;;;23.73;16.33;;;12.90;83.70;;;;;;5114684;28;20107;-79
2023/12/29 06:47:07;;;;;;;25.75;16.25;;;12.90;83.60;;;;;;5115533;28;20528;-79
2023/12/29 06:49:35;;;;;;;22.80;16.83;;;12.90;83.80;;;;;;5114627;28;20587;-77
2023/12/29 06:52:01;;;;;;;20.13;16.70;;;12.90;83.70;;;;;;5114847;28;20054;-77
2023/12/29 06:54:26;;;;;;;20.23;16.70;;;12.90;83.80;;;;;;5114748;28;20102;-78
2023/12/29 06:56:52;;;;;;;22.77;17.50;;;12.90;83.80;;;;;;5114124;28;20106;-77
2023/12/29 06:59:19;;;;;;;22.60;18.05;;;12.90;83.80;;;;;;5113896;28;20041;-77
2023/12/29 07:01:45;;;;;;;23.23;17.58;;;12.90;84.00;;;;;;5113978;28;20134;-77
2023/12/29 07:04:12;;;;;;;23.25;18.40;;;12.90;84.10;;;;;;5113930;28;20024;-79
2023/12/29 07:06:38;;;;;;;25.55;17.70;;;13.00;84.00;;;;;;5113828;28;20039;-78
2023/12/29 07:09:04;;;;;;;26.15;17.73;;;12.90;83.90;;;;;;5113755;28;20044;-79
2023/12/29 07:11:30;;;;;;;22.88;17.30;;;13.00;84.10;;;;;;5113631;28;20052;-78
2023/12/29 07:13:55;;;;;;;27.38;17.83;;;12.90;83.70;;;;;;5113632;28;20475;-79
2023/12/29 07:16:21;;;;;;;23.10;16.73;;;12.90;83.90;;;;;;5113575;28;20076;-79
2023/12/29 07:18:47;;;;;;;26.70;17.88;;;12.90;84.00;;;;;;5113805;28;20073;-77
2023/12/29 07:21:14;;;;;;;22.02;16.77;;;13.00;83.80;;;;;;5113761;28;20074;-78
2023/12/29 07:23:41;;;;;;;23.77;18.17;;;12.90;83.80;;;;;;5113584;28;20024;-79
2023/12/29 07:26:07;;;;;;;24.15;17.45;;;13.00;83.90;;;;;;5095488;28;20399;-79
2023/12/29 07:28:33;;;;;;;22.00;17.00;;;13.00;83.80;;;;;;5112021;28;20028;-80
2023/12/29 07:30:59;;;;;;;23.10;18.25;;;13.00;83.70;;;;;;5112396;28;20044;-77
2023/12/29 07:33:25;;;;;;;24.80;17.85;;;13.00;83.60;;;;;;5113572;28;20088;-78
2023/12/29 07:35:51;;;;;;;26.67;18.05;;;13.10;83.70;;;;;;5113100;28;20036;-77
2023/12/29 07:38:16;;;;;;;26.02;17.65;;;13.20;84.40;;;;;;5112326;28;20116;-79
2023/12/29 07:40:42;;;;;;;24.33;17.50;;;13.20;83.40;;;;;;5113819;28;20475;-78
2023/12/29 07:43:08;;;;;;;25.45;18.50;;;13.20;83.30;;;;;;5113123;28;20110;-78
2023/12/29 07:45:34;;;;;;;27.65;17.58;;;13.20;83.30;;;;;;5113516;28;20043;-79
2023/12/29 07:48:01;;;;;;;24.38;18.45;;;13.20;83.40;;;;;;5113099;28;20164;-80
2023/12/29 07:50:27;;;;;;;23.88;18.15;;;13.30;83.60;;;;;;5112047;28;20447;-79
2023/12/29 07:52:53;;;;;;;26.77;18.23;;;13.30;83.60;;;;;;5114203;28;20038;-78
2023/12/29 07:55:18;;;;;;;26.85;18.50;;;13.30;83.60;;;;;;5113464;28;20488;-80
2023/12/29 07:57:46;;;;;;;28.00;18.65;;;13.40;83.60;;;;;;5113837;28;20046;-78
2023/12/29 08:00:14;;;;;;;28.08;17.42;;;13.40;83.40;;;;;;5114096;28;20441;-78
2023/12/29 08:02:40;;;;;;;25.55;17.20;;;13.40;83.40;;;;;;5113579;28;20032;-80
2023/12/29 08:05:09;;;;;;;22.15;17.30;;;13.50;83.40;;;;;;5111579;28;20107;-80
2023/12/29 08:07:37;;;;;;;27.08;17.52;;;13.50;83.30;;;;;;5112990;28;20036;-79
2023/12/29 08:10:07;;;;;;;27.42;18.08;;;13.60;83.00;;;;;;5113027;28;20040;-79
2023/12/29 08:12:38;;;;;;;22.75;16.27;;;13.70;83.30;;;;;;5113308;28;20047;-78
2023/12/29 08:15:05;;;;;;;22.02;16.10;;;13.80;82.80;;;;;;5112907;28;20155;-80
2023/12/29 08:17:31;;;;;;;20.85;15.15;;;13.90;82.40;;;;;;5112963;28;20027;-81
2023/12/29 08:19:57;;;;;;;23.42;14.20;;;13.90;82.20;;;;;;5113800;28;20100;-79
2023/12/29 08:22:22;;;;;;;21.55;15.15;;;14.00;82.10;;;;;;5113578;28;20039;-78
2023/12/29 08:24:48;;;;;;;20.95;13.35;;;14.10;81.80;;;;;;5113908;28;20088;-81
2023/12/29 08:27:14;;;;;;;24.02;14.15;;;14.10;81.50;;;;;;5115255;28;20148;-80
2023/12/29 08:29:40;;;;;;;17.30;12.55;;;14.20;81.40;;;;;;5114980;28;20042;-79
2023/12/29 08:32:07;;;;;;;18.20;12.82;;;14.20;81.00;;;;;;5113179;28;20150;-77
2023/12/29 08:34:34;;;;;;;19.23;12.63;;;14.20;80.60;;;;;;5113048;28;20461;-79
2023/12/29 08:37:00;;;;;;;22.30;13.85;;;14.30;80.50;;;;;;5112802;28;20028;-79
2023/12/29 08:39:25;;;;;;;26.55;14.13;;;14.40;80.70;;;;;;5112837;28;20562;-80
2023/12/29 08:41:51;;;;;;;21.30;14.43;;;14.50;80.60;;;;;;5113009;28;20034;-80
2023/12/29 08:44:17;;;;;;;18.90;14.00;;;14.50;80.20;;;;;;5112638;28;20071;-78
2023/12/29 08:46:43;;;;;;;22.83;13.70;;;14.40;80.00;;;;;;5111426;28;20031;-79
2023/12/29 08:49:08;;;;;;;20.95;14.25;;;14.40;80.20;;;;;;5115576;28;20081;-78
2023/12/29 08:51:34;;;;;;;24.08;14.88;;;14.40;80.10;;;;;;5116679;28;20475;-80
2023/12/29 08:54:00;;;;;;;22.17;15.20;;;14.50;80.10;;;;;;5116269;28;20027;-79
2023/12/29 08:56:26;;;;;;;19.73;14.82;;;14.50;79.90;;;;;;5116509;28;20428;-82
2023/12/29 08:58:52;;;;;;;31.48;15.70;;;14.60;80.00;;;;;;5116503;28;20416;-80
2023/12/29 09:01:19;;;;;;;24.38;16.25;;;14.60;79.80;;;;;;5116154;28;20032;-80
2023/12/29 09:03:44;;;;;;;21.60;14.80;;;14.70;79.60;;;;;;5116393;28;20475;-79
2023/12/29 09:06:10;;;;;;;26.85;15.43;;;14.70;79.60;;;;;;5115845;28;20107;-78
2023/12/29 09:08:36;;;;;;;22.15;14.98;;;14.80;79.60;;;;;;5115994;28;20483;-78
2023/12/29 09:11:02;;;;;;;25.77;15.57;;;14.90;79.40;;;;;;5116548;28;20047;-78
2023/12/29 09:13:28;;;;;;;27.73;15.68;;;14.90;79.40;;;;;;5116665;28;20103;-77
2023/12/29 09:15:57;;;;;;;23.25;15.73;;;15.00;79.20;;;;;;5115056;28;20042;-78
2023/12/29 09:18:23;;;;;;;20.95;16.17;;;15.00;79.00;;;;;;5115627;28;20103;-79
2023/12/29 09:20:48;;;;;;;23.33;15.30;;;15.10;79.10;;;;;;5115605;28;20059;-78
2023/12/29 09:23:14;;;;;;;24.67;15.60;;;15.10;79.10;;;;;;5115605;28;20039;-78
2023/12/29 09:25:40;;;;;;;31.00;18.08;;;15.20;79.00;;;;;;5115856;28;20024;-79
2023/12/29 09:28:06;;;;;;;25.65;16.30;;;15.20;79.00;;;;;;5115600;27;20035;-79
2023/12/29 09:30:32;;;;;;;27.13;15.90;;;15.30;78.80;;;;;;5115756;28;20479;-80
2023/12/29 09:32:58;;;;;;;24.00;15.70;;;15.30;78.70;;;;;;5115733;28;20032;-79
2023/12/29 09:35:24;;;;;;;25.38;14.95;;;15.20;78.60;;;;;;5114731;28;20036;-79
2023/12/29 09:37:49;;;;;;;25.45;15.35;;;15.30;78.60;;;;;;5115770;28;20039;-79
2023/12/29 09:40:15;;;;;;;26.38;15.27;;;15.30;78.60;;;;;;5115669;28;20032;-79
2023/12/29 09:42:44;;;;;;;21.73;15.13;;;15.30;78.50;;;;;;5115305;28;20031;-80
2023/12/29 09:45:12;;;;;;;27.80;16.00;;;15.40;78.30;;;;;;5115027;28;20092;-78
2023/12/29 09:47:43;;;;;;;19.25;13.77;;;15.30;78.20;;;;;;5115100;28;20031;-81
2023/12/29 09:50:13;;;;;;;20.42;13.45;;;15.30;78.30;;;;;;5115769;28;20047;-79
2023/12/29 09:52:43;;;;;;;18.17;13.73;;;15.30;78.30;;;;;;5116599;28;20032;-81
2023/12/29 09:55:10;;;;;;;18.40;13.73;;;15.40;78.50;;;;;;5115453;28;20039;-80
2023/12/29 09:57:40;;;;;;;20.98;14.95;;;15.50;78.30;;;;;;5115327;28;20027;-78
2023/12/29 10:00:10;;;;;;;21.65;15.30;;;15.50;78.10;;;;;;5114617;28;20088;-78
2023/12/29 10:02:37;;;;;;;25.02;15.70;;;15.50;78.20;;;;;;5115056;28;20037;-80
2023/12/29 10:05:04;;;;;;;23.77;16.50;;;15.50;78.00;;;;;;5115462;28;20040;-79
2023/12/29 10:07:33;;;;;;;22.63;16.35;;;15.50;78.10;;;;;;5115518;28;20414;-78
2023/12/29 10:09:59;;;;;;;27.48;16.55;;;15.50;78.70;;;;;;5115626;28;20123;-79
2023/12/29 10:12:27;;;;;;;26.98;16.23;;;15.50;78.20;;;;;;5114280;28;20032;-79
2023/12/29 10:15:32;;;;;;;26.35;17.30;;;15.60;78.20;;;;;;5115869;28;20058;-79
2023/12/29 10:18:26;;;;;;;27.42;17.00;;;15.60;78.30;;;;;;5107928;28;20043;-78
2023/12/29 10:21:26;;;;;;;27.65;17.38;;;15.70;78.10;;;;;;5115226;28;20148;-81
2023/12/29 10:24:01;;;;;;;20.70;16.13;;;15.80;78.10;;;;;;5115024;28;20454;-79
2023/12/29 10:26:27;;;;;;;24.80;17.23;;;15.90;77.80;;;;;;5115269;28;20080;-79
2023/12/29 10:28:53;;;;;;;26.48;17.33;;;15.90;77.60;;;;;;5114243;28;20124;-79
2023/12/29 10:31:19;;;;;;;29.75;16.05;;;16.00;77.60;;;;;;5118095;28;20050;-79
2023/12/29 10:33:50;;;;;;;22.55;15.98;;;16.00;77.50;;;;;;5114748;28;20495;-81
2023/12/29 10:36:16;;;;;;;23.10;16.25;;;16.10;77.70;;;;;;5114489;28;20023;-80
2023/12/29 10:38:42;;;;;;;22.75;15.95;;;16.10;77.70;;;;;;5114506;28;20020;-79
2023/12/29 10:41:13;;;;;;;22.13;16.45;;;16.20;77.80;;;;;;5114476;28;20091;-79
2023/12/29 10:43:41;;;;;;;21.92;16.40;;;16.30;77.70;;;;;;5114290;28;20166;-79
2023/12/29 10:46:10;;;;;;;20.77;15.13;;;16.30;77.50;;;;;;5114540;28;20471;-81
2023/12/29 10:48:37;;;;;;;28.48;16.77;;;16.40;77.50;;;;;;5114226;28;20027;-80
2023/12/29 10:51:04;;;;;;;28.58;16.13;;;16.50;77.50;;;;;;5117794;28;20097;-79
2023/12/29 10:53:34;;;;;;;21.70;16.27;;;16.50;77.40;;;;;;5116613;28;20032;-82
2023/12/29 10:56:00;;;;;;;25.33;14.98;;;16.50;77.20;;;;;;5114327;28;20032;-80
2023/12/29 10:58:29;;;;;;;29.70;19.33;;;16.50;77.20;;;;;;5114397;28;20498;-80
2023/12/29 11:00:59;;;;;;;24.38;15.00;;;16.50;77.20;;;;;;5114563;28;20089;-80
2023/12/29 11:03:25;;;;;;;22.17;13.50;;;16.60;77.20;;;;;;5115036;28;20455;-81
2023/12/29 11:06:00;;;;;;;16.60;12.73;;;16.60;77.30;;;;;;5114770;28;20093;-81
2023/12/29 11:08:26;;;;;;;26.80;16.23;;;16.70;77.40;;;;;;5114474;28;20039;-80
2023/12/29 11:10:53;;;;;;;21.67;15.57;;;16.70;77.30;;;;;;5114327;28;20092;-80
2023/12/29 11:13:20;;;;;;;21.90;14.98;;;16.70;77.10;;;;;;5115918;28;20075;-80
2023/12/29 11:15:46;;;;;;;29.17;15.75;;;16.70;77.00;;;;;;5112833;28;20194;-78
2023/12/29 11:18:16;;;;;;;18.27;13.23;;;16.60;76.90;;;;;;5114311;28;20074;-81
2023/12/29 11:20:44;;;;;;;21.33;14.07;;;16.60;77.00;;;;;;5114326;28;20387;-80
2023/12/29 11:23:13;;;;;;;18.63;12.65;;;16.60;77.10;;;;;;5114313;28;20028;-79
2023/12/29 11:25:40;;;;;;;19.52;13.75;;;16.70;77.20;;;;;;5113718;28;20035;-80
2023/12/29 11:28:11;;;;;;;17.60;12.93;;;16.70;77.00;;;;;;5114072;28;20036;-78
2023/12/29 11:30:39;;;;;;;23.52;14.30;;;16.80;77.10;;;;;;5114151;28;20040;-80
2023/12/29 11:33:26;;;;;;;24.70;15.43;;;16.90;77.00;;;;;;5113127;28;20467;-79
2023/12/29 11:36:22;;;;;;;23.65;14.60;;;16.90;76.80;;;;;;5113456;28;20601;-79
2023/12/29 11:38:57;;;;;;;27.50;13.90;;;16.90;77.40;;;;;;5111180;28;20059;-78
2023/12/29 11:41:38;;;;;;;20.50;13.50;;;17.00;76.80;;;;;;5113599;28;20035;-79
2023/12/29 11:44:04;;;;;;;21.08;13.57;;;17.00;76.80;;;;;;5112992;28;20108;-79
2023/12/29 11:46:38;;;;;;;23.02;13.65;;;17.00;76.30;;;;;;5112971;28;20039;-80
2023/12/29 11:49:04;;;;;;;18.35;14.32;;;16.90;76.20;;;;;;5112857;28;20099;-80
2023/12/29 11:51:34;;;;;;;22.23;14.65;;;16.90;76.40;;;;;;5113833;28;20042;-79
2023/12/29 11:54:04;;;;;;;22.98;15.38;;;17.00;76.30;;;;;;5112756;28;20478;-80
2023/12/29 11:56:35;;;;;;;22.40;14.15;;;17.00;76.20;;;;;;5113056;28;20032;-78
2023/12/29 11:59:17;;;;;;;19.30;13.77;;;17.00;76.10;;;;;;5113087;28;20039;-79
2023/12/29 12:01:43;;;;;;;18.20;13.27;;;17.00;75.70;;;;;;5113139;28;20036;-79
2023/12/29 12:04:40;;;;;;;19.80;11.52;;;17.00;75.80;;;;;;5113079;28;20104;-79
2023/12/29 12:07:27;;;;;;;17.33;11.50;;;17.00;75.80;;;;;;5112931;28;20035;-79
2023/12/29 12:10:32;;;;;;;20.50;12.23;;;17.00;75.90;;;;;;5108666;28;20130;-80
2023/12/29 12:12:59;;;;;;;16.83;10.82;;;17.00;75.80;;;;;;5113261;28;20035;-79
2023/12/29 12:15:28;;;;;;;23.70;12.02;;;17.00;75.50;;;;;;5113207;28;20386;-80
2023/12/29 12:17:54;;;;;;;17.58;11.57;;;17.10;75.50;;;;;;5113069;28;20035;-80
2023/12/29 12:20:20;;;;;;;15.73;11.20;;;17.00;75.70;;;;;;5112851;28;20039;-79
2023/12/29 12:22:53;;;;;;;17.92;12.07;;;17.00;75.20;;;;;;5113951;28;20085;-79
2023/12/29 12:25:19;;;;;;;14.70;10.60;;;17.00;75.20;;;;;;5117257;28;20074;-79
2023/12/29 12:27:45;;;;;;;17.52;12.38;;;17.00;75.30;;;;;;5117035;28;20452;-78
2023/12/29 12:30:18;;;;;;;17.58;11.10;;;17.10;75.20;;;;;;5116667;28;20123;-79